Time;durP1;ratioP1;P1;durP2;ratioP2;P2;SDS_P1;SDS_P2;PMS_P1;PMS_P2;Temp;Humidity;BMP_temperature;BMP_pressure;BME280_temperature;BME280_humidity;BME280_pressure;Samples;Min_cycle;Max_cycle;Signal;HPM_P1;HPM_P2
2022/10/18 00:00:01;;;;;;;;;;;19.50;99.90;;;;;;5092853;28;19912;-28
2022/10/18 00:02:27;;;;;;;;;;;19.50;99.90;;;;;;5092791;28;19915;-24
2022/10/18 00:04:52;;;;;;;;;;;19.50;99.90;;;;;;5092762;28;19995;-23
2022/10/18 00:07:18;;;;;;;;;;;19.50;99.90;;;;;;5092839;28;19951;-24
2022/10/18 00:09:43;;;;;;;;;;;19.50;99.90;;;;;;5092695;28;19918;-24
2022/10/18 00:12:09;;;;;;;;;;;19.50;99.90;;;;;;5092740;28;20288;-25
2022/10/18 00:14:34;;;;;;;;;;;19.40;99.90;;;;;;5092436;28;19908;-22
2022/10/18 00:17:00;;;;;;;;;;;19.40;99.90;;;;;;5092612;28;19908;-24
2022/10/18 00:19:25;;;;;;;;;;;19.40;99.90;;;;;;5092696;28;19947;-24
2022/10/18 00:21:51;;;;;;;;;;;19.40;99.90;;;;;;5092805;28;20121;-24
2022/10/18 00:24:16;;;;;;;;;;;19.40;99.90;;;;;;5092244;28;19942;-29
2022/10/18 00:26:42;;;;;;;;;;;19.40;99.90;;;;;;5092397;28;19912;-26
2022/10/18 00:29:10;;;;;;;;;;;19.40;99.90;;;;;;5092196;28;19931;-25
2022/10/18 00:31:36;;;;;;;;;;;19.40;99.90;;;;;;5092409;28;19908;-24
2022/10/18 00:34:03;;;;;;;;;;;19.40;99.90;;;;;;5092154;28;20629;-23
2022/10/18 00:36:30;;;;;;;;;;;19.40;99.90;;;;;;5092189;28;20002;-26
2022/10/18 00:38:56;;;;;;;;;;;19.40;99.90;;;;;;5091628;28;19915;-23
2022/10/18 00:41:25;;;;;;;;;;;19.40;99.90;;;;;;5092281;28;19912;-25
2022/10/18 00:43:54;;;;;;;;;;;19.40;99.90;;;;;;5091829;28;19935;-22
2022/10/18 00:46:19;;;;;;;;;;;19.40;99.90;;;;;;5092274;28;19908;-24
2022/10/18 00:48:45;;;;;;;;;;;19.40;99.90;;;;;;5092075;28;19912;-24
2022/10/18 00:51:11;;;;;;;;;;;19.40;99.90;;;;;;5092289;28;19927;-25
2022/10/18 00:53:36;;;;;;;;;;;19.40;99.90;;;;;;5092101;28;20270;-24
2022/10/18 00:56:02;;;;;;;;;;;19.40;99.90;;;;;;5091851;28;19912;-24
2022/10/18 00:58:27;;;;;;;;;;;19.40;99.90;;;;;;5091954;28;19912;-23
2022/10/18 01:00:53;;;;;;;;;;;19.40;99.90;;;;;;5092007;28;19912;-24
2022/10/18 01:03:19;;;;;;;;;;;19.40;99.90;;;;;;5090623;28;19912;-31
2022/10/18 01:05:45;;;;;;;;;;;19.30;99.90;;;;;;5092024;28;19912;-23
2022/10/18 01:08:20;;;;;;;;;;;19.40;99.90;;;;;;5091790;28;19912;-24
2022/10/18 01:10:45;;;;;;;;;;;19.40;99.90;;;;;;5091928;28;20373;-29
2022/10/18 01:13:30;;;;;;;;;;;19.30;99.90;;;;;;5091477;28;19918;-29
2022/10/18 01:15:55;;;;;;;;;;;19.30;99.90;;;;;;5091013;28;20346;-31
2022/10/18 01:18:21;;;;;;;;;;;19.30;99.90;;;;;;5092026;28;19913;-24
2022/10/18 01:20:56;;;;;;;;;;;19.30;99.90;;;;;;5091901;28;19908;-24
2022/10/18 01:23:25;;;;;;;;;;;19.30;99.90;;;;;;5092116;28;19991;-31
2022/10/18 01:25:55;;;;;;;;;;;19.30;99.90;;;;;;5092662;28;20337;-24
2022/10/18 01:28:21;;;;;;;;;;;19.30;99.90;;;;;;5091839;28;19965;-24
2022/10/18 01:31:00;;;;;;;;;;;19.30;99.90;;;;;;5091966;28;19908;-28
2022/10/18 01:33:37;;;;;;;;;;;19.30;99.90;;;;;;5091625;28;19908;-24
2022/10/18 01:36:06;;;;;;;;;;;19.30;99.90;;;;;;5091546;28;19961;-27
2022/10/18 01:38:32;;;;;;;;;;;19.30;99.90;;;;;;5091708;28;19916;-27
2022/10/18 01:40:58;;;;;;;;;;;19.30;99.90;;;;;;5091679;28;19999;-25
2022/10/18 01:43:24;;;;;;;;;;;19.30;99.90;;;;;;5091408;28;19908;-22
2022/10/18 01:45:52;;;;;;;;;;;19.30;99.90;;;;;;5092213;28;20404;-27
2022/10/18 01:48:18;;;;;;;;;;;19.30;99.90;;;;;;5091406;28;19912;-29
2022/10/18 01:50:43;;;;;;;;;;;19.30;99.90;;;;;;5093090;28;19915;-24
2022/10/18 01:53:22;;;;;;;;;;;19.30;99.90;;;;;;5095383;28;19912;-24
2022/10/18 01:55:54;;;;;;;;;;;19.30;99.90;;;;;;5095464;28;19929;-24
2022/10/18 01:58:42;;;;;;;;;;;19.30;99.90;;;;;;5095577;28;20188;-25
2022/10/18 02:01:16;;;;;;;;;;;19.30;99.90;;;;;;5095389;28;19916;-28
2022/10/18 02:03:43;;;;;;;;;;;19.30;99.90;;;;;;5095176;28;19997;-27
2022/10/18 02:06:15;;;;;;;;;;;19.30;99.90;;;;;;5095392;28;20371;-30
2022/10/18 02:08:49;;;;;;;;;;;19.30;99.90;;;;;;5095347;28;19912;-29
2022/10/18 02:11:16;;;;;;;;;;;19.20;99.90;;;;;;5095428;28;19998;-29
2022/10/18 02:13:44;;;;;;;;;;;19.20;99.90;;;;;;5095126;28;19909;-24
2022/10/18 02:16:12;;;;;;;;;;;19.20;99.90;;;;;;5095296;28;20001;-26
2022/10/18 02:18:43;;;;;;;;;;;19.20;99.90;;;;;;5095315;28;20331;-27
2022/10/18 02:21:11;;;;;;;;;;;19.20;99.90;;;;;;5095091;28;19912;-24
2022/10/18 02:23:37;;;;;;;;;;;19.20;99.90;;;;;;5094770;28;20298;-25
2022/10/18 02:26:02;;;;;;;;;;;19.20;99.90;;;;;;5094857;28;19915;-26
2022/10/18 02:28:28;;;;;;;;;;;19.20;99.90;;;;;;5094677;28;19916;-26
2022/10/18 02:31:18;;;;;;;;;;;19.20;99.90;;;;;;5094812;28;19912;-24
2022/10/18 02:33:43;;;;;;;;;;;19.20;99.90;;;;;;5094571;28;19999;-24
2022/10/18 02:36:14;;;;;;;;;;;19.30;99.90;;;;;;5094610;28;20360;-24
2022/10/18 02:38:40;;;;;;;;;;;19.20;99.90;;;;;;5094595;28;20384;-24
2022/10/18 02:41:06;;;;;;;;;;;19.20;99.90;;;;;;5094542;28;19908;-24
2022/10/18 02:43:32;;;;;;;;;;;19.20;99.90;;;;;;5094478;28;19908;-24
2022/10/18 02:45:57;;;;;;;;;;;19.20;99.90;;;;;;5094525;28;19908;-24
2022/10/18 02:48:23;;;;;;;;;;;19.20;99.90;;;;;;5094403;28;19939;-29
2022/10/18 02:50:48;;;;;;;;;;;19.20;99.90;;;;;;5094337;28;20376;-33
2022/10/18 02:53:14;;;;;;;;;;;19.20;99.90;;;;;;5094397;28;19980;-24
2022/10/18 02:55:39;;;;;;;;;;;19.10;99.90;;;;;;5094296;28;19912;-25
2022/10/18 02:58:05;;;;;;;;;;;19.20;99.90;;;;;;5094291;28;19919;-24
2022/10/18 03:00:30;;;;;;;;;;;19.10;99.90;;;;;;5094203;28;19916;-22
2022/10/18 03:02:56;;;;;;;;;;;19.20;99.90;;;;;;5093743;28;19915;-29
2022/10/18 03:05:21;;;;;;;;;;;19.10;99.90;;;;;;5093872;28;20373;-24
2022/10/18 03:07:47;;;;;;;;;;;19.10;99.90;;;;;;5094061;28;19951;-24
2022/10/18 03:10:12;;;;;;;;;;;19.20;99.90;;;;;;5094009;28;19912;-24
2022/10/18 03:12:38;;;;;;;;;;;19.10;99.90;;;;;;5093788;28;20368;-23
2022/10/18 03:15:04;;;;;;;;;;;19.10;99.90;;;;;;5093920;28;19909;-24
2022/10/18 03:17:29;;;;;;;;;;;19.10;99.90;;;;;;5092517;28;19958;-24
2022/10/18 03:19:55;;;;;;;;;;;19.10;99.90;;;;;;5093802;28;19908;-23
2022/10/18 03:22:20;;;;;;;;;;;19.10;99.90;;;;;;5093743;28;19961;-23
2022/10/18 03:24:46;;;;;;;;;;;19.10;99.90;;;;;;5093769;28;19974;-24
2022/10/18 03:27:11;;;;;;;;;;;19.10;99.90;;;;;;5093800;28;19923;-27
2022/10/18 03:29:37;;;;;;;;;;;19.10;99.90;;;;;;5093516;28;19927;-26
2022/10/18 03:32:02;;;;;;;;;;;19.10;99.90;;;;;;5093632;28;19909;-28
2022/10/18 03:34:28;;;;;;;;;;;19.10;99.90;;;;;;5093235;28;19960;-22
2022/10/18 03:36:53;;;;;;;;;;;19.10;99.90;;;;;;5093315;28;19908;-26
2022/10/18 03:39:19;;;;;;;;;;;19.10;99.90;;;;;;5093477;28;20424;-22
2022/10/18 03:41:44;;;;;;;;;;;19.10;99.90;;;;;;5093603;28;19908;-22
2022/10/18 03:44:10;;;;;;;;;;;19.10;99.90;;;;;;5093082;28;19908;-23
2022/10/18 03:46:35;;;;;;;;;;;19.10;99.90;;;;;;5093277;28;20292;-29
2022/10/18 03:49:01;;;;;;;;;;;19.10;99.90;;;;;;5093086;28;19916;-24
2022/10/18 03:51:27;;;;;;;;;;;19.10;99.90;;;;;;5093105;28;19912;-24
2022/10/18 03:53:52;;;;;;;;;;;19.10;99.90;;;;;;5093009;28;20263;-24
2022/10/18 03:56:18;;;;;;;;;;;19.10;99.90;;;;;;5093317;28;19912;-24
2022/10/18 03:58:43;;;;;;;;;;;19.10;99.90;;;;;;5093341;28;19912;-24
2022/10/18 04:01:09;;;;;;;;;;;19.00;99.90;;;;;;5093171;28;19912;-23
2022/10/18 04:03:34;;;;;;;;;;;19.00;99.90;;;;;;5093100;28;20440;-24
2022/10/18 04:06:02;;;;;;;;;;;19.10;99.90;;;;;;5092940;28;20675;-25
2022/10/18 04:08:28;;;;;;;;;;;19.10;99.90;;;;;;5093038;28;19915;-22
2022/10/18 04:10:53;;;;;;;;;;;19.00;99.90;;;;;;5093057;28;19908;-24
2022/10/18 04:13:19;;;;;;;;;;;19.00;99.90;;;;;;5091784;28;20395;-30
2022/10/18 04:15:44;;;;;;;;;;;19.00;99.90;;;;;;5092809;28;19912;-23
2022/10/18 04:18:10;;;;;;;;;;;19.00;99.90;;;;;;5092633;28;20016;-24
2022/10/18 04:20:35;;;;;;;;;;;19.00;99.90;;;;;;5092350;28;19919;-24
2022/10/18 04:23:01;;;;;;;;;;;19.10;99.90;;;;;;5092805;28;19912;-24
2022/10/18 04:25:28;;;;;;;;;;;19.00;99.90;;;;;;5092579;28;20024;-24
2022/10/18 04:27:53;;;;;;;;;;;19.00;99.90;;;;;;5092456;28;20357;-24
2022/10/18 04:30:19;;;;;;;;;;;19.00;99.90;;;;;;5092424;28;19966;-24
2022/10/18 04:32:44;;;;;;;;;;;19.00;99.90;;;;;;5092205;28;19954;-26
2022/10/18 04:35:10;;;;;;;;;;;19.00;99.90;;;;;;5092320;28;19983;-24
2022/10/18 04:37:36;;;;;;;;;;;19.00;99.90;;;;;;5092410;28;20346;-25
2022/10/18 04:40:02;;;;;;;;;;;19.00;99.90;;;;;;5092403;28;19965;-31
2022/10/18 04:42:27;;;;;;;;;;;19.00;99.90;;;;;;5092174;28;19908;-27
2022/10/18 04:44:53;;;;;;;;;;;19.00;99.90;;;;;;5092076;28;20312;-28
2022/10/18 04:47:18;;;;;;;;;;;19.00;99.90;;;;;;5092258;28;19908;-29
2022/10/18 04:49:44;;;;;;;;;;;19.00;99.90;;;;;;5092031;28;20070;-27
2022/10/18 04:52:09;;;;;;;;;;;19.00;99.90;;;;;;5092127;28;20379;-28
2022/10/18 04:54:35;;;;;;;;;;;19.00;99.90;;;;;;5092217;28;19938;-28
2022/10/18 04:57:00;;;;;;;;;;;19.00;99.90;;;;;;5092238;28;19991;-27
2022/10/18 04:59:26;;;;;;;;;;;19.00;99.90;;;;;;5091954;28;20429;-27
2022/10/18 05:01:51;;;;;;;;;;;19.00;99.90;;;;;;5090639;28;19916;-24
2022/10/18 05:04:17;;;;;;;;;;;19.00;99.90;;;;;;5091772;28;19912;-25
2022/10/18 05:06:42;;;;;;;;;;;19.00;99.90;;;;;;5091971;28;19908;-22
2022/10/18 05:09:08;;;;;;;;;;;19.00;99.90;;;;;;5091932;28;19920;-23
2022/10/18 05:11:33;;;;;;;;;;;19.00;99.90;;;;;;5092033;28;19934;-24
2022/10/18 05:13:59;;;;;;;;;;;19.00;99.90;;;;;;5091690;28;19923;-24
2022/10/18 05:16:24;;;;;;;;;;;19.00;99.90;;;;;;5092051;28;19915;-24
2022/10/18 05:18:50;;;;;;;;;;;19.00;99.90;;;;;;5091565;28;19908;-24
2022/10/18 05:21:16;;;;;;;;;;;19.00;99.90;;;;;;5091811;28;20289;-24
2022/10/18 05:23:41;;;;;;;;;;;19.00;99.90;;;;;;5091478;28;19912;-24
2022/10/18 05:26:07;;;;;;;;;;;19.00;99.90;;;;;;5091443;28;19908;-24
2022/10/18 05:28:33;;;;;;;;;;;19.00;99.90;;;;;;5091411;28;19916;-25
2022/10/18 05:31:00;;;;;;;;;;;19.00;99.90;;;;;;5091556;28;19988;-23
2022/10/18 05:33:25;;;;;;;;;;;19.00;99.90;;;;;;5091308;28;20328;-25
2022/10/18 05:35:51;;;;;;;;;;;18.90;99.90;;;;;;5090650;28;19918;-26
2022/10/18 05:38:16;;;;;;;;;;;18.90;99.90;;;;;;5091589;28;19939;-25
2022/10/18 05:40:42;;;;;;;;;;;18.90;99.90;;;;;;5091597;28;19966;-25
2022/10/18 05:43:07;;;;;;;;;;;18.90;99.90;;;;;;5091402;28;20366;-24
2022/10/18 05:45:33;;;;;;;;;;;18.90;99.90;;;;;;5091304;28;19908;-24
2022/10/18 05:47:58;;;;;;;;;;;18.90;99.90;;;;;;5091252;28;20392;-24
2022/10/18 05:50:24;;;;;;;;;;;18.90;99.90;;;;;;5091397;28;19936;-24
2022/10/18 05:52:49;;;;;;;;;;;18.90;99.90;;;;;;5091378;28;19920;-24
2022/10/18 05:55:15;;;;;;;;;;;18.90;99.90;;;;;;5091383;28;19912;-24
2022/10/18 05:57:41;;;;;;;;;;;18.90;99.90;;;;;;5091367;28;20319;-27
2022/10/18 06:00:06;;;;;;;;;;;18.90;99.90;;;;;;5091781;28;19908;-24
2022/10/18 06:02:32;;;;;;;;;;;18.90;99.90;;;;;;5090997;28;19919;-24
2022/10/18 06:04:57;;;;;;;;;;;18.90;99.90;;;;;;5091204;28;19908;-25
2022/10/18 06:07:23;;;;;;;;;;;18.90;99.90;;;;;;5091178;28;20094;-30
2022/10/18 06:09:48;;;;;;;;;;;18.90;99.90;;;;;;5091088;28;19934;-28
2022/10/18 06:12:14;;;;;;;;;;;18.90;99.90;;;;;;5091153;28;19909;-24
2022/10/18 06:14:42;;;;;;;;;;;18.80;99.90;;;;;;5091001;28;19915;-25
2022/10/18 06:17:07;;;;;;;;;;;18.80;99.90;;;;;;5090990;28;19908;-29
2022/10/18 06:19:33;;;;;;;;;;;18.80;99.90;;;;;;5091317;28;19912;-28
2022/10/18 06:21:58;;;;;;;;;;;18.80;99.90;;;;;;5091026;28;19931;-24
2022/10/18 06:24:25;;;;;;;;;;;18.80;99.90;;;;;;5090926;28;19915;-24
2022/10/18 06:26:50;;;;;;;;;;;18.80;99.90;;;;;;5090967;28;19908;-24
2022/10/18 06:29:16;;;;;;;;;;;18.80;99.90;;;;;;5090848;28;19923;-22
2022/10/18 06:31:41;;;;;;;;;;;18.80;99.90;;;;;;5090982;28;19916;-22
2022/10/18 06:34:07;;;;;;;;;;;18.80;99.90;;;;;;5091089;28;19912;-22
2022/10/18 06:36:32;;;;;;;;;;;18.80;99.90;;;;;;5092073;28;20373;-22
2022/10/18 06:38:58;;;;;;;;;;;18.80;99.90;;;;;;5093256;28;19908;-22
2022/10/18 06:41:24;;;;;;;;;;;18.80;99.90;;;;;;5093261;28;19915;-24
2022/10/18 06:43:51;;;;;;;;;;;18.80;99.90;;;;;;5094319;28;19908;-24
2022/10/18 06:46:17;;;;;;;;;;;18.80;99.90;;;;;;5094392;28;20361;-22
2022/10/18 06:48:43;;;;;;;;;;;18.80;99.90;;;;;;5094341;28;19923;-23
2022/10/18 06:51:09;;;;;;;;;;;18.80;99.90;;;;;;5094574;28;19919;-24
2022/10/18 06:53:36;;;;;;;;;;;18.70;99.90;;;;;;5094065;28;19908;-22
2022/10/18 06:56:03;;;;;;;;;;;18.70;99.90;;;;;;5094290;28;20244;-21
2022/10/18 06:58:29;;;;;;;;;;;18.70;99.90;;;;;;5092910;28;19988;-24
2022/10/18 07:00:55;;;;;;;;;;;18.70;99.90;;;;;;5094087;28;20373;-24
2022/10/18 07:03:20;;;;;;;;;;;18.70;99.90;;;;;;5094030;28;19908;-27
2022/10/18 07:05:46;;;;;;;;;;;18.70;99.90;;;;;;5094080;28;20003;-22
2022/10/18 07:08:12;;;;;;;;;;;18.70;99.90;;;;;;5094050;28;19919;-30
2022/10/18 07:10:37;;;;;;;;;;;18.70;99.90;;;;;;5093942;28;19912;-23
2022/10/18 07:13:03;;;;;;;;;;;18.70;99.90;;;;;;5093728;28;19931;-27
2022/10/18 07:15:29;;;;;;;;;;;18.70;99.90;;;;;;5092376;28;19912;-23
2022/10/18 07:17:54;;;;;;;;;;;18.60;99.90;;;;;;5093903;28;19912;-22
2022/10/18 07:20:20;;;;;;;;;;;18.70;99.90;;;;;;5093806;28;19913;-22
2022/10/18 07:22:45;;;;;;;;;;;18.70;99.90;;;;;;5093846;28;19908;-25
2022/10/18 07:25:11;;;;;;;;;;;18.60;99.90;;;;;;5093648;28;19909;-24
2022/10/18 07:27:37;;;;;;;;;;;18.60;99.90;;;;;;5094155;28;19908;-24
2022/10/18 07:30:06;;;;;;;;;;;18.60;99.90;;;;;;5093320;28;20012;-27
2022/10/18 07:32:32;;;;;;;;;;;18.60;99.90;;;;;;5093431;28;20360;-28
2022/10/18 07:34:57;;;;;;;;;;;18.60;99.90;;;;;;5093503;28;19912;-25
2022/10/18 07:37:23;;;;;;;;;;;18.60;99.90;;;;;;5093586;28;19908;-23
2022/10/18 07:39:48;;;;;;;;;;;18.60;99.90;;;;;;5093541;28;19908;-22
2022/10/18 07:42:14;;;;;;;;;;;18.60;99.90;;;;;;5093392;28;19908;-25
2022/10/18 07:44:39;;;;;;;;;;;18.60;99.90;;;;;;5093014;28;20289;-24
2022/10/18 07:47:05;;;;;;;;;;;18.60;99.90;;;;;;5093263;28;19915;-28
2022/10/18 07:49:30;;;;;;;;;;;18.60;99.90;;;;;;5093350;28;20027;-28
2022/10/18 07:51:56;;;;;;;;;;;18.60;99.90;;;;;;5093251;28;19918;-22
2022/10/18 07:54:21;;;;;;;;;;;18.70;99.90;;;;;;5093001;28;19951;-22
2022/10/18 07:56:47;;;;;;;;;;;18.60;99.90;;;;;;5093454;28;19912;-22
2022/10/18 07:59:13;;;;;;;;;;;18.60;99.90;;;;;;5093357;28;19960;-24
2022/10/18 08:01:38;;;;;;;;;;;18.60;99.90;;;;;;5093148;28;20413;-24
2022/10/18 08:04:04;;;;;;;;;;;18.60;99.90;;;;;;5092811;28;19995;-25
2022/10/18 08:06:29;;;;;;;;;;;18.60;99.90;;;;;;5092939;28;19908;-24
2022/10/18 08:08:55;;;;;;;;;;;18.60;99.90;;;;;;5092830;28;19962;-25
2022/10/18 08:11:22;;;;;;;;;;;18.60;99.90;;;;;;5092836;28;20385;-22
2022/10/18 08:13:48;;;;;;;;;;;18.60;99.90;;;;;;5092425;28;19919;-24
2022/10/18 08:16:15;;;;;;;;;;;18.60;99.90;;;;;;5092886;28;20269;-24
2022/10/18 08:18:40;;;;;;;;;;;18.60;99.90;;;;;;5092690;28;19908;-24
2022/10/18 08:21:07;;;;;;;;;;;18.60;99.90;;;;;;5092628;28;19916;-24
2022/10/18 08:23:33;;;;;;;;;;;18.60;99.90;;;;;;5092409;28;20369;-24
2022/10/18 08:26:05;;;;;;;;;;;18.60;99.90;;;;;;5092520;28;19919;-24
2022/10/18 08:28:31;;;;;;;;;;;18.60;99.90;;;;;;5092259;28;19916;-24
2022/10/18 08:31:01;;;;;;;;;;;18.70;99.90;;;;;;5092430;28;20254;-24
2022/10/18 08:33:26;;;;;;;;;;;18.70;99.90;;;;;;5092246;28;20365;-22
2022/10/18 08:35:55;;;;;;;;;;;18.70;99.90;;;;;;5092434;28;19912;-22
2022/10/18 08:38:20;;;;;;;;;;;18.70;99.90;;;;;;5092341;28;19908;-24
2022/10/18 08:40:46;;;;;;;;;;;18.60;99.90;;;;;;5092198;28;19934;-26
2022/10/18 08:43:26;;;;;;;;;;;18.60;99.90;;;;;;5092062;28;20001;-23
2022/10/18 08:45:53;;;;;;;;;;;18.70;99.90;;;;;;5092201;28;19955;-24
2022/10/18 08:48:31;;;;;;;;;;;18.70;99.90;;;;;;5092196;28;19908;-25
2022/10/18 08:50:57;;;;;;;;;;;18.80;99.90;;;;;;5092588;28;19937;-27
2022/10/18 08:53:43;;;;;;;;;;;18.80;99.90;;;;;;5091783;28;19925;-24
2022/10/18 08:56:14;;;;;;;;;;;18.90;99.90;;;;;;5091717;28;19935;-24
2022/10/18 08:58:42;;;;;;;;;;;18.90;99.90;;;;;;5092073;28;20002;-24
2022/10/18 09:01:19;;;;;;;;;;;19.00;99.90;;;;;;5092204;28;19966;-24
2022/10/18 09:03:55;;;;;;;;;;;19.00;99.90;;;;;;5091638;28;19995;-25
2022/10/18 09:06:24;;;;;;;;;;;19.10;99.90;;;;;;5091908;28;20044;-26
2022/10/18 09:08:49;;;;;;;;;;;19.10;99.90;;;;;;5091738;28;19912;-24
2022/10/18 09:11:23;;;;;;;;;;;19.20;99.90;;;;;;5091847;28;19913;-29
2022/10/18 09:13:51;;;;;;;;;;;19.20;99.90;;;;;;5092103;28;19915;-30
2022/10/18 09:16:35;;;;;;;;;;;19.30;99.90;;;;;;5091545;28;19908;-26
2022/10/18 09:19:19;;;;;;;;;;;19.30;99.90;;;;;;5091803;28;20323;-27
2022/10/18 09:21:50;;;;;;;;;;;19.40;99.90;;;;;;5091648;28;19908;-23
2022/10/18 09:24:29;;;;;;;;;;;19.40;99.90;;;;;;5091937;28;20007;-23
2022/10/18 09:27:09;;;;;;;;;;;19.50;99.90;;;;;;5090098;28;19912;-23
2022/10/18 09:29:43;;;;;;;;;;;19.50;99.90;;;;;;5091433;28;19916;-23
2022/10/18 09:32:27;;;;;;;;;;;19.50;99.90;;;;;;5091608;28;19958;-24
2022/10/18 09:34:55;;;;;;;;;;;19.60;99.90;;;;;;5091417;28;19923;-24
2022/10/18 09:37:22;;;;;;;;;;;19.60;99.90;;;;;;5091418;28;19915;-24
2022/10/18 09:39:49;;;;;;;;;;;19.60;99.90;;;;;;5091498;28;20426;-23
2022/10/18 09:42:33;;;;;;;;;;;19.70;99.90;;;;;;5091497;28;19915;-23
2022/10/18 09:45:22;;;;;;;;;;;19.70;99.90;;;;;;5091471;28;20208;-31
2022/10/18 09:47:56;;;;;;;;;;;19.80;99.90;;;;;;5090873;28;20322;-27
2022/10/18 09:50:24;;;;;;;;;;;19.80;99.90;;;;;;5091461;28;19964;-28
2022/10/18 09:53:12;;;;;;;;;;;19.80;99.90;;;;;;5091308;28;19908;-27
2022/10/18 09:55:47;;;;;;;;;;;19.80;99.90;;;;;;5091281;28;19935;-28
2022/10/18 09:58:14;;;;;;;;;;;19.90;99.90;;;;;;5091584;28;19962;-27
2022/10/18 10:00:46;;;;;;;;;;;19.80;99.90;;;;;;5091408;28;19920;-23
2022/10/18 10:03:13;;;;;;;;;;;19.80;99.90;;;;;;5091117;28;19995;-28
2022/10/18 10:05:39;;;;;;;;;;;19.90;99.90;;;;;;5091398;28;19912;-24
2022/10/18 10:08:05;;;;;;;;;;;19.80;99.90;;;;;;5091377;28;20375;-24
2022/10/18 10:10:30;;;;;;;;;;;19.90;99.90;;;;;;5091165;28;19924;-24
2022/10/18 10:13:05;;;;;;;;;;;19.90;99.90;;;;;;5094614;28;19963;-24
2022/10/18 10:15:32;;;;;;;;;;;19.90;99.90;;;;;;5095032;28;19908;-27
2022/10/18 10:18:00;;;;;;;;;;;19.90;99.90;;;;;;5095079;28;19908;-31
2022/10/18 10:20:43;;;;;;;;;;;19.90;99.90;;;;;;5095087;28;19908;-28
2022/10/18 10:23:13;;;;;;;;;;;19.90;99.90;;;;;;5094718;28;19977;-32
2022/10/18 10:25:39;;;;;;;;;;;19.90;99.90;;;;;;5093485;28;20393;-27
2022/10/18 10:28:17;;;;;;;;;;;19.90;99.90;;;;;;5094801;28;19919;-25
2022/10/18 10:30:43;;;;;;;;;;;19.90;99.90;;;;;;5094843;28;19959;-34
2022/10/18 10:33:27;;;;;;;;;;;20.00;99.90;;;;;;5094625;28;20381;-26
2022/10/18 10:35:57;;;;;;;;;;;20.00;99.90;;;;;;5094633;28;19919;-32
2022/10/18 10:38:26;;;;;;;;;;;19.90;99.90;;;;;;5094725;28;19916;-30
2022/10/18 10:40:52;;;;;;;;;;;19.90;99.90;;;;;;5094751;28;19916;-29
2022/10/18 10:43:36;;;;;;;;;;;19.90;99.90;;;;;;5094796;28;19915;-23
2022/10/18 10:46:10;;;;;;;;;;;20.00;99.90;;;;;;5094463;28;19920;-23
2022/10/18 10:48:53;;;;;;;;;;;19.90;99.90;;;;;;5094658;28;19954;-25
2022/10/18 10:51:38;;;;;;;;;;;20.00;99.90;;;;;;5094440;28;19936;-23
2022/10/18 10:54:06;;;;;;;;;;;20.10;99.90;;;;;;5094157;28;20421;-24
2022/10/18 10:56:34;;;;;;;;;;;20.10;99.90;;;;;;5094291;28;19998;-22
2022/10/18 10:59:05;;;;;;;;;;;20.20;99.90;;;;;;5094311;28;19915;-25
2022/10/18 11:01:31;;;;;;;;;;;20.20;99.90;;;;;;5094475;28;19960;-24
2022/10/18 11:04:00;;;;;;;;;;;20.30;99.90;;;;;;5094073;28;19912;-23
2022/10/18 11:06:28;;;;;;;;;;;20.30;99.90;;;;;;5094161;28;19909;-24
2022/10/18 11:08:56;;;;;;;;;;;20.40;99.90;;;;;;5093899;28;19983;-24
2022/10/18 11:11:32;;;;;;;;;;;20.40;99.90;;;;;;5094102;28;19915;-23
2022/10/18 11:14:12;;;;;;;;;;;20.50;99.90;;;;;;5093895;28;20441;-23
2022/10/18 11:16:41;;;;;;;;;;;20.50;99.90;;;;;;5094026;28;19912;-23
2022/10/18 11:19:18;;;;;;;;;;;20.50;99.90;;;;;;5093827;28;19915;-22
2022/10/18 11:21:44;;;;;;;;;;;20.50;99.90;;;;;;5093927;28;19915;-23
2022/10/18 11:24:14;;;;;;;;;;;20.50;99.90;;;;;;5093803;28;19908;-24
2022/10/18 11:26:42;;;;;;;;;;;20.60;99.90;;;;;;5093775;28;19913;-23
2022/10/18 11:29:23;;;;;;;;;;;20.60;99.90;;;;;;5092328;28;20396;-23
2022/10/18 11:32:12;;;;;;;;;;;20.60;99.90;;;;;;5093558;28;20027;-23
2022/10/18 11:34:53;;;;;;;;;;;20.60;99.90;;;;;;5093537;28;19908;-23
2022/10/18 11:37:22;;;;;;;;;;;20.60;99.90;;;;;;5093547;28;19912;-23
2022/10/18 11:39:57;;;;;;;;;;;20.60;99.90;;;;;;5093788;28;19965;-24
2022/10/18 11:42:32;;;;;;;;;;;20.70;99.90;;;;;;5093347;28;19999;-23
2022/10/18 11:45:09;;;;;;;;;;;20.70;99.90;;;;;;5093502;28;19931;-23
2022/10/18 11:47:38;;;;;;;;;;;20.70;99.90;;;;;;5093438;28;20297;-25
2022/10/18 11:50:41;;;;;;;;;;;20.60;99.90;;;;;;5093157;28;20345;-24
2022/10/18 11:53:12;;;;;;;;;;;20.60;99.90;;;;;;5090454;28;20003;-23
2022/10/18 11:55:47;;;;;;;;;;;20.60;99.90;;;;;;5073623;28;19908;-24
2022/10/18 11:58:31;;;;;;;;;;;20.60;99.90;;;;;;5092038;28;20395;-23
2022/10/18 12:00:57;;;;;;;;;;;20.60;99.90;;;;;;5092953;28;19915;-24
2022/10/18 12:03:25;;;;;;;;;;;20.60;99.90;;;;;;5092875;28;19908;-23
2022/10/18 12:05:52;;;;;;;;;;;20.60;99.90;;;;;;5092889;28;20383;-23
2022/10/18 12:08:28;;;;;;;;;;;20.50;99.90;;;;;;5092912;28;20419;-25
2022/10/18 12:10:56;;;;;;;;;;;20.50;99.90;;;;;;5092763;28;19912;-23
2022/10/18 12:13:32;;;;;;;;;;;20.50;99.90;;;;;;5092149;28;19912;-22
2022/10/18 12:15:58;;;;;;;;;;;20.50;99.90;;;;;;5092827;28;19909;-25
2022/10/18 12:18:25;;;;;;;;;;;20.50;99.90;;;;;;5092733;28;19908;-25
2022/10/18 12:20:52;;;;;;;;;;;20.50;99.90;;;;;;5093009;28;19956;-24
2022/10/18 12:23:31;;;;;;;;;;;20.50;99.90;;;;;;5092452;28;20003;-23
2022/10/18 12:26:06;;;;;;;;;;;20.50;99.90;;;;;;5092520;28;19909;-24
2022/10/18 12:28:32;;;;;;;;;;;20.60;99.90;;;;;;5092639;28;19924;-23
2022/10/18 12:31:01;;;;;;;;;;;20.60;99.90;;;;;;5092718;28;19919;-24
2022/10/18 12:33:33;;;;;;;;;;;20.60;99.90;;;;;;5092070;28;19908;-23
2022/10/18 12:36:17;;;;;;;;;;;20.60;99.90;;;;;;5092165;28;19962;-23
2022/10/18 12:38:44;;;;;;;;;;;20.70;99.90;;;;;;5092260;28;19912;-24
2022/10/18 12:41:29;;;;;;;;;;;20.70;99.90;;;;;;5092618;28;19916;-24
2022/10/18 12:44:18;;;;;;;;;;;20.80;99.90;;;;;;5092290;28;19914;-25
2022/10/18 12:46:45;;;;;;;;;;;20.80;99.90;;;;;;5091596;28;19915;-24
2022/10/18 12:49:12;;;;;;;;;;;20.80;99.90;;;;;;5092108;28;19965;-23
2022/10/18 12:52:03;;;;;;;;;;;20.80;99.90;;;;;;5092285;28;20284;-23
2022/10/18 12:54:38;;;;;;;;;;;20.80;99.90;;;;;;5082258;28;19908;-26
2022/10/18 12:57:05;;;;;;;;;;;20.80;99.90;;;;;;5092002;28;20385;-24
2022/10/18 12:59:30;;;;;;;;;;;20.90;99.90;;;;;;5090718;28;19916;-25
2022/10/18 13:01:56;;;;;;;;;;;20.90;99.90;;;;;;5092080;28;20327;-23
2022/10/18 13:04:27;;;;;;;;;;;20.90;99.90;;;;;;5091933;28;19909;-22
2022/10/18 13:07:06;;;;;;;;;;;20.90;99.90;;;;;;5091961;28;19912;-24
2022/10/18 13:09:35;;;;;;;;;;;20.90;99.90;;;;;;5091755;28;19919;-24
2022/10/18 13:12:20;;;;;;;;;;;20.90;99.90;;;;;;5091807;28;19912;-23
2022/10/18 13:14:57;;;;;;;;;;;20.90;99.90;;;;;;5090344;28;20365;-24
2022/10/18 13:17:26;;;;;;;;;;;20.90;99.90;;;;;;5091754;28;19972;-25
2022/10/18 13:19:51;;;;;;;;;;;20.90;99.90;;;;;;5092153;28;20410;-26
2022/10/18 13:22:17;;;;;;;;;;;21.00;99.90;;;;;;5091638;28;19908;-23
2022/10/18 13:24:45;;;;;;;;;;;21.00;99.90;;;;;;5090135;28;19959;-22
2022/10/18 13:27:20;;;;;;;;;;;21.00;99.90;;;;;;5092136;28;19915;-25
2022/10/18 13:30:04;;;;;;;;;;;20.90;99.90;;;;;;5091424;28;20016;-26
2022/10/18 13:32:44;;;;;;;;;;;20.90;99.90;;;;;;5091071;28;20278;-27
2022/10/18 13:35:28;;;;;;;;;;;20.90;99.90;;;;;;5091527;28;20426;-31
2022/10/18 13:37:58;;;;;;;;;;;20.80;99.90;;;;;;5091611;28;20292;-32
2022/10/18 13:40:24;;;;;;;;;;;20.80;99.90;;;;;;5091630;28;19990;-29
2022/10/18 13:42:50;;;;;;;;;;;20.70;99.90;;;;;;5091219;28;20289;-26
2022/10/18 13:45:35;;;;;;;;;;;20.70;99.90;;;;;;5092152;28;19909;-30
2022/10/18 13:48:40;;;;;;;;;;;20.60;99.90;;;;;;5095647;28;20511;-32
2022/10/18 13:51:15;;;;;;;;;;;20.60;99.90;;;;;;5092980;28;19912;-24
2022/10/18 13:53:46;;;;;;;;;;;20.60;99.90;;;;;;5093714;28;19920;-29
2022/10/18 13:56:19;;;;;;;;;;;20.60;99.90;;;;;;5095432;28;20365;-30
2022/10/18 13:58:56;;;;;;;;;;;20.60;99.90;;;;;;5095447;28;19995;-28
2022/10/18 14:01:25;;;;;;;;;;;20.60;99.90;;;;;;5095426;28;19981;-28
2022/10/18 14:04:01;;;;;;;;;;;20.60;99.90;;;;;;5095061;28;20345;-24
2022/10/18 14:06:32;;;;;;;;;;;20.60;99.90;;;;;;5095768;28;20345;-21
2022/10/18 14:09:03;;;;;;;;;;;20.60;99.90;;;;;;5095703;28;20321;-22
2022/10/18 14:11:45;;;;;;;;;;;20.60;99.90;;;;;;5095314;28;20340;-22
2022/10/18 14:14:30;;;;;;;;;;;20.70;99.90;;;;;;5093519;28;19994;-22
2022/10/18 14:17:22;;;;;;;;;;;20.70;99.90;;;;;;5095082;28;19976;-21
2022/10/18 14:19:55;;;;;;;;;;;20.70;99.90;;;;;;5094688;28;19948;-24
2022/10/18 14:22:25;;;;;;;;;;;20.70;99.90;;;;;;5094999;28;19908;-23
2022/10/18 14:24:54;;;;;;;;;;;20.70;99.90;;;;;;5094772;28;19916;-23
2022/10/18 14:27:24;;;;;;;;;;;20.60;99.90;;;;;;5094915;28;19983;-23